North Platte, NE

5:10 AM CDT on August 21, 2014 (GMT -0500)
K0KDC North Platte | Change Station
CLOSE
Current Station
Personal Weather Station
Location: North Platte, NE
Elevation: 2808 ft
Nearby Weather Stations

Elev 2808 ft 41.14 °N, 100.77 °W | Updated 24 seconds ago

Clear
Clear
67.7 °F
Feels Like 67.7 °F
N
1.0
Wind Variable Wind from WSW
Gusts 7.0 mph

Today
High -- | Low -- °F
--% Chance of Precip.
Yesterday
High -- | Low -- °F
Precip. -- in
6:58 AM 8:32 PM
Waning Crescent, 15% visible
Pressure 29.75 in
Visibility 10.0 miles
Clouds Clear
Dew Point 62 °F
Humidity 82%
Rainfall -999.00 in
Snow Depth Not available.
UV 0 out of 12
Pollen 10.50 out of 12
Air Quality Not available.
Flu Activity Not available.
METAR KLBF 210953Z AUTO 32006KT 10SM CLR 18/16 A2984 RMK AO2 SLP075 T01780161

More Conditions Fewer Conditions

Pressure 29.75 in
Visibility 10.0 miles
Clouds Clear
Dew Point 62 °F
Humidity 82%
Rainfall -999.00 in
Snow Depth Not available.
UV 0 out of 12
Pollen 10.50 out of 12
Air Quality Not available.
Flu Activity Not available.
METAR KLBF 210953Z AUTO 32006KT 10SM CLR 18/16 A2984 RMK AO2 SLP075 T01780161

More Conditions Fewer Conditions

10-Day Weather Forecast

Almanac

Astronomy

Aug. 21, 2014 Rise Set
Actual Time 6:58 AM CDT 8:32 PM CDT
Civil Twilight 6:29 AM CDT 9:01 PM CDT
Nautical Twilight 5:54 AM CDT 9:36 PM CDT
Astronomical Twilight 5:16 AM CDT 10:14 PM CDT
Moon 3:29 AM CDT 6:03 PM CDT
Length of Visible Light 14h 32m
Length of Day
13h 34m
Tomorrow will be 2m 31s shorter.
Waning Crescent, 15% of the Moon is Illuminated
Today
Waning Crescent
Aug 25
New
Sep 2
First Quarter
Sep 8
Full
Sep 15
Last Quarter

Today's Extremes

State Highs State Lows

Community

WunderPhotos

Upload Photos

1,745,871 photos uploaded!

Nearby

Snow Depth

Station Depth Elevation
No new snow has been reported.

Earthquake Activity

City Distance Mag. Time & Date
No recent earthquake activity has been reported nearby.
Minimum magnitude displayed is 2.5.

Coastal Water Temperatures

Place Temperature
No Stations Reporting

Nearby Weather Stations